createdAt,value
2019-01-28T00:02:36.149Z,36.17
2019-01-28T00:05:08.492Z,35.90
2019-01-28T00:07:44.771Z,30.97
2019-01-28T00:10:18.747Z,35.60
2019-01-28T00:12:55.954Z,36.60
2019-01-28T00:15:39.110Z,45.20
2019-01-28T00:18:13.831Z,50.17
2019-01-28T00:21:03.762Z,48.53
2019-01-28T00:23:38.169Z,46.33
2019-01-28T00:26:12.236Z,76.37
2019-01-28T00:28:50.053Z,70.07
2019-01-28T00:31:40.666Z,62.10
2019-01-28T00:34:18.464Z,55.20
2019-01-28T00:36:51.014Z,55.23
2019-01-28T00:39:30.371Z,73.43
2019-01-28T00:42:10.306Z,61.23
2019-01-28T00:44:46.536Z,55.83
2019-01-28T00:47:24.428Z,79.33
2019-01-28T00:49:58.235Z,83.40
2019-01-28T00:52:32.096Z,62.43
2019-01-28T00:55:06.465Z,72.37
2019-01-28T00:57:39.471Z,65.13
2019-01-28T01:00:17.960Z,61.10
2019-01-28T01:02:52.038Z,63.73
2019-01-28T01:05:25.474Z,66.40
2019-01-28T01:08:00.973Z,68.20
2019-01-28T01:10:33.015Z,91.20
2019-01-28T01:13:04.728Z,62.40
2019-01-28T01:15:42.958Z,71.00
2019-01-28T01:18:26.468Z,62.13
2019-01-28T01:21:05.853Z,65.17
2019-01-28T01:23:40.100Z,87.07
2019-01-28T01:26:22.217Z,65.80
2019-01-28T01:28:51.163Z,65.60
2019-01-28T01:31:37.536Z,67.25
2019-01-28T01:34:23.122Z,60.00
2019-01-28T01:36:57.372Z,61.73
2019-01-28T01:39:38.989Z,50.67
2019-01-28T01:42:18.333Z,48.17
2019-01-28T01:44:49.753Z,54.57
2019-01-28T01:47:25.124Z,45.73
2019-01-28T01:49:58.696Z,44.80
2019-01-28T01:52:38.243Z,48.00
2019-01-28T01:55:10.746Z,50.33
2019-01-28T01:57:44.875Z,44.33
2019-01-28T02:00:21.262Z,41.27
2019-01-28T02:02:55.481Z,42.37
2019-01-28T02:05:32.430Z,44.17
2019-01-28T02:08:04.380Z,41.40
2019-01-28T02:10:42.505Z,40.67
2019-01-28T02:16:09.549Z,41.73
2019-01-28T02:18:42.827Z,45.40
2019-01-28T02:21:16.038Z,44.33
2019-01-28T02:23:50.891Z,42.67
2019-01-28T02:26:30.169Z,51.63
2019-01-28T02:29:03.819Z,42.17
2019-01-28T02:31:36.661Z,47.93
2019-01-28T02:34:14.950Z,50.10
2019-01-28T02:36:48.378Z,45.70
2019-01-28T02:39:23.259Z,50.03
2019-01-28T02:42:09.458Z,56.37
2019-01-28T02:44:48.012Z,50.67
2019-01-28T02:47:21.478Z,45.40
2019-01-28T02:50:00.242Z,52.23
2019-01-28T02:52:44.968Z,47.37
2019-01-28T02:55:21.635Z,50.77
2019-01-28T02:58:00.833Z,45.40
2019-01-28T03:00:45.146Z,55.57
2019-01-28T03:03:23.693Z,49.27
2019-01-28T03:05:56.761Z,50.87
2019-01-28T03:08:30.346Z,48.13
2019-01-28T03:11:05.252Z,51.83
2019-01-28T03:13:39.789Z,47.37
2019-01-28T03:16:17.985Z,44.83
2019-01-28T03:18:52.766Z,45.33
2019-01-28T03:21:29.705Z,48.80
2019-01-28T03:24:02.572Z,41.83
2019-01-28T03:26:40.093Z,47.43
2019-01-28T03:29:12.079Z,54.30
2019-01-28T03:31:46.536Z,47.17
2019-01-28T03:34:19.607Z,44.93
2019-01-28T03:36:51.181Z,54.27
2019-01-28T03:39:22.705Z,53.87
2019-01-28T03:41:55.758Z,52.57
2019-01-28T03:44:31.436Z,43.13
2019-01-28T03:47:04.995Z,50.47
2019-01-28T03:49:37.026Z,46.20
2019-01-28T03:52:11.110Z,53.60
2019-01-28T03:54:42.941Z,46.87
2019-01-28T03:57:15.035Z,47.77
2019-01-28T03:59:49.830Z,43.37
2019-01-28T04:02:23.806Z,48.37
2019-01-28T04:05:00.309Z,39.47
2019-01-28T04:07:39.412Z,38.70
2019-01-28T04:10:22.730Z,34.97
2019-01-28T04:12:58.176Z,38.63
2019-01-28T04:15:32.557Z,38.43
2019-01-28T04:18:04.652Z,45.07
2019-01-28T04:20:35.970Z,44.50
2019-01-28T04:23:08.066Z,45.83
2019-01-28T04:25:43.533Z,45.23
2019-01-28T04:28:14.560Z,48.50
2019-01-28T04:30:45.564Z,40.40
2019-01-28T04:33:16.777Z,40.97
2019-01-28T04:35:49.811Z,43.80
2019-01-28T04:38:20.720Z,48.33
2019-01-28T04:40:53.059Z,47.77
2019-01-28T04:43:24.813Z,45.80
2019-01-28T04:46:03.276Z,41.27
2019-01-28T04:48:37.210Z,45.47
2019-01-28T04:51:11.019Z,44.77
2019-01-28T04:53:59.581Z,43.53
2019-01-28T04:56:32.971Z,45.20
2019-01-28T04:59:03.810Z,43.27
2019-01-28T05:01:36.261Z,43.33
2019-01-28T05:04:08.681Z,35.73
2019-01-28T05:06:41.820Z,37.63
2019-01-28T05:09:15.267Z,43.83
2019-01-28T05:11:47.759Z,36.13
2019-01-28T05:14:29.913Z,40.50
2019-01-28T05:17:05.769Z,33.80
2019-01-28T05:19:49.901Z,36.43
2019-01-28T05:22:30.313Z,33.57
2019-01-28T05:25:04.023Z,36.63
2019-01-28T05:27:40.874Z,32.83
2019-01-28T05:30:28.395Z,34.57
2019-01-28T05:33:01.750Z,28.50
2019-01-28T05:35:47.603Z,32.00
2019-01-28T05:38:26.324Z,29.80
2019-01-28T05:41:01.050Z,30.10
2019-01-28T05:43:35.267Z,31.27
2019-01-28T05:46:11.830Z,27.60
2019-01-28T05:48:45.136Z,32.83
2019-01-28T05:51:23.727Z,26.80
2019-01-28T05:53:58.611Z,30.10
2019-01-28T05:56:35.867Z,27.07
2019-01-28T05:59:18.634Z,29.67
2019-01-28T06:01:53.825Z,29.83
2019-01-28T06:04:29.750Z,28.53
2019-01-28T06:07:06.152Z,25.80
2019-01-28T06:09:41.503Z,29.10
2019-01-28T06:12:22.082Z,29.87
2019-01-28T06:14:54.408Z,29.23
2019-01-28T06:17:27.703Z,30.80
2019-01-28T06:20:03.108Z,30.37
2019-01-28T06:22:40.300Z,30.33
2019-01-28T06:25:12.351Z,30.20
2019-01-28T06:27:50.428Z,29.03
2019-01-28T06:30:28.553Z,27.93
2019-01-28T06:33:04.032Z,29.77
2019-01-28T06:35:48.795Z,30.60
2019-01-28T06:38:25.843Z,30.45
2019-01-28T06:41:02.547Z,29.57
2019-01-28T06:43:45.855Z,29.27
2019-01-28T06:46:16.632Z,29.07
2019-01-28T06:48:48.373Z,28.80
2019-01-28T06:51:24.789Z,30.90
2019-01-28T06:54:00.013Z,32.43
2019-01-28T06:56:47.368Z,29.67
2019-01-28T06:59:20.512Z,24.52
2019-01-28T07:01:58.927Z,27.53
2019-01-28T07:04:37.843Z,27.77
2019-01-28T07:07:10.029Z,28.50
2019-01-28T07:09:42.376Z,27.37
2019-01-28T07:12:26.985Z,28.33
2019-01-28T07:15:03.723Z,27.53
2019-01-28T07:17:42.296Z,29.30
2019-01-28T07:20:20.004Z,28.77
2019-01-28T07:22:53.926Z,28.37
2019-01-28T07:25:39.676Z,29.97
2019-01-28T07:28:17.176Z,31.87
2019-01-28T07:30:52.304Z,30.63
2019-01-28T07:33:40.426Z,31.60
2019-01-28T07:36:25.693Z,29.90
2019-01-28T07:39:03.263Z,29.63
2019-01-28T07:44:54.600Z,29.53
2019-01-28T07:47:28.115Z,28.43
2019-01-28T07:50:04.092Z,28.63
2019-01-28T07:52:38.926Z,28.33
2019-01-28T07:55:13.955Z,27.90
2019-01-28T07:57:49.973Z,29.57
2019-01-28T08:00:22.976Z,28.00
2019-01-28T08:02:58.136Z,24.67
2019-01-28T08:05:33.698Z,28.17
2019-01-28T08:08:18.043Z,27.07
2019-01-28T08:11:05.770Z,26.03
2019-01-28T08:13:52.405Z,24.97
2019-01-28T08:16:33.807Z,27.57
2019-01-28T08:19:05.967Z,26.43
2019-01-28T08:21:48.729Z,23.97
2019-01-28T08:24:23.221Z,26.48
2019-01-28T08:27:02.296Z,27.03
2019-01-28T08:29:45.986Z,27.43
2019-01-28T08:32:33.767Z,23.50
2019-01-28T08:35:10.692Z,25.03
2019-01-28T08:37:48.984Z,21.60
2019-01-28T08:40:21.837Z,24.60
2019-01-28T08:42:57.999Z,23.83
2019-01-28T08:45:32.836Z,23.00
2019-01-28T08:48:21.155Z,23.83
2019-01-28T08:50:52.522Z,23.07
2019-01-28T08:53:23.558Z,25.27
2019-01-28T08:55:54.750Z,24.20
2019-01-28T08:58:26.225Z,25.40
2019-01-28T09:00:58.487Z,23.10
2019-01-28T09:03:29.284Z,22.60
2019-01-28T09:06:00.178Z,20.73
2019-01-28T09:08:32.624Z,23.43
2019-01-28T09:11:04.246Z,20.53
2019-01-28T09:13:35.860Z,21.03
2019-01-28T09:16:07.195Z,25.97
2019-01-28T09:18:38.790Z,20.77
2019-01-28T09:21:09.907Z,23.70
2019-01-28T09:23:41.861Z,21.63
2019-01-28T09:26:13.699Z,23.00
2019-01-28T09:28:45.343Z,23.60
2019-01-28T09:31:16.420Z,21.93
2019-01-28T09:33:48.141Z,21.03
2019-01-28T09:36:23.815Z,20.80
2019-01-28T09:38:56.090Z,21.23
2019-01-28T09:41:28.941Z,19.43
2019-01-28T09:44:00.235Z,19.77
2019-01-28T09:46:31.822Z,20.73
2019-01-28T09:49:05.451Z,18.67
2019-01-28T09:51:39.838Z,22.87
2019-01-28T09:54:14.543Z,20.83
2019-01-28T09:56:48.185Z,19.77
2019-01-28T09:59:19.612Z,29.63
2019-01-28T10:01:56.761Z,26.07
2019-01-28T10:04:28.548Z,21.37
2019-01-28T10:07:02.122Z,26.87
2019-01-28T10:09:35.830Z,27.47
2019-01-28T10:12:13.412Z,29.07
2019-01-28T10:14:46.761Z,22.93
2019-01-28T10:17:19.285Z,30.03
2019-01-28T10:19:52.436Z,31.27
2019-01-28T10:22:25.529Z,23.33
2019-01-28T10:24:56.507Z,27.73
2019-01-28T10:27:28.034Z,24.30
2019-01-28T10:30:02.242Z,31.20
2019-01-28T10:32:36.271Z,27.40
2019-01-28T10:35:10.154Z,25.87
2019-01-28T10:37:42.553Z,24.17
2019-01-28T10:40:21.334Z,25.00
2019-01-28T10:42:55.143Z,22.03
2019-01-28T10:45:29.116Z,20.10
2019-01-28T10:48:01.193Z,20.43
2019-01-28T10:50:32.505Z,20.57
2019-01-28T10:53:04.212Z,19.77
2019-01-28T10:55:38.623Z,20.13
2019-01-28T10:58:09.516Z,17.67
2019-01-28T11:00:48.248Z,23.10
2019-01-28T11:03:24.030Z,23.70
2019-01-28T11:05:59.080Z,20.83
2019-01-28T11:08:34.403Z,21.40
2019-01-28T11:11:09.181Z,26.63
2019-01-28T11:13:40.682Z,23.87
2019-01-28T11:16:11.746Z,19.37
2019-01-28T11:18:43.087Z,18.67
2019-01-28T11:21:14.902Z,18.60
2019-01-28T11:23:54.145Z,19.93
2019-01-28T11:26:26.145Z,19.53
2019-01-28T11:29:00.745Z,16.43
2019-01-28T11:31:36.003Z,17.40
2019-01-28T11:34:10.801Z,23.83
2019-01-28T11:36:44.839Z,19.87
2019-01-28T11:39:25.154Z,17.03
2019-01-28T11:42:10.234Z,18.40
2019-01-28T11:44:36.761Z,16.10
2019-01-28T11:47:15.499Z,15.97
2019-01-28T11:49:49.223Z,15.47
2019-01-28T11:52:27.736Z,17.50
2019-01-28T11:55:00.470Z,21.30
2019-01-28T11:57:38.495Z,18.10
2019-01-28T12:00:24.870Z,17.77
2019-01-28T12:03:01.859Z,11.83
2019-01-28T12:05:40.814Z,12.30
2019-01-28T12:08:16.494Z,14.23
2019-01-28T12:11:02.052Z,14.47
2019-01-28T12:13:36.522Z,12.23
2019-01-28T12:16:13.452Z,12.70
2019-01-28T12:18:49.067Z,12.23
2019-01-28T12:21:21.507Z,9.60
2019-01-28T12:23:59.067Z,11.33
2019-01-28T12:26:39.718Z,10.27
2019-01-28T12:29:20.856Z,8.60
2019-01-28T12:32:07.939Z,9.53
2019-01-28T12:34:44.075Z,8.43
2019-01-28T12:37:24.422Z,9.43
2019-01-28T12:40:20.240Z,9.60
2019-01-28T12:42:54.976Z,9.80
2019-01-28T12:45:46.495Z,8.57
2019-01-28T12:48:23.058Z,9.93
2019-01-28T12:51:04.505Z,8.57
2019-01-28T12:53:42.542Z,9.07
2019-01-28T12:56:24.519Z,8.00
2019-01-28T12:59:08.989Z,6.80
2019-01-28T13:01:36.549Z,7.60
2019-01-28T13:04:14.719Z,8.67
2019-01-28T13:06:50.922Z,7.87
2019-01-28T13:09:27.085Z,8.20
2019-01-28T13:12:12.201Z,6.63
2019-01-28T13:14:46.148Z,8.43
2019-01-28T13:17:45.492Z,8.27
2019-01-28T13:20:22.808Z,7.13
2019-01-28T13:23:00.226Z,6.70
2019-01-28T13:25:40.351Z,6.60
2019-01-28T13:28:21.411Z,6.47
2019-01-28T13:30:58.471Z,5.67
2019-01-28T13:33:44.155Z,5.63
2019-01-28T13:36:20.814Z,5.70
2019-01-28T13:39:05.132Z,5.97
2019-01-28T13:41:39.920Z,6.13
2019-01-28T13:44:11.671Z,5.67
2019-01-28T13:46:44.866Z,5.27
2019-01-28T13:49:16.487Z,6.03
2019-01-28T13:51:51.388Z,6.60
2019-01-28T13:54:34.666Z,5.60
2019-01-28T13:57:06.697Z,4.57
2019-01-28T13:59:41.280Z,5.57
2019-01-28T14:02:12.979Z,6.80
2019-01-28T14:04:43.924Z,6.87
2019-01-28T14:07:16.436Z,5.60
2019-01-28T14:09:48.732Z,4.53
2019-01-28T14:12:24.216Z,5.57
2019-01-28T14:14:55.600Z,4.37
2019-01-28T14:17:27.387Z,4.77
2019-01-28T14:20:01.038Z,5.37
2019-01-28T14:22:33.055Z,4.07
2019-01-28T14:25:17.074Z,4.73
2019-01-28T14:27:52.541Z,3.43
2019-01-28T14:30:30.170Z,7.20
2019-01-28T14:33:01.940Z,3.97
2019-01-28T14:35:33.684Z,5.27
2019-01-28T14:38:07.188Z,4.63
2019-01-28T14:40:40.217Z,5.97
2019-01-28T14:43:12.042Z,6.00
2019-01-28T14:45:43.420Z,4.33
2019-01-28T14:48:15.702Z,5.30
2019-01-28T14:50:48.316Z,4.83
2019-01-28T14:53:19.998Z,5.33
2019-01-28T14:55:51.148Z,6.17
2019-01-28T14:58:23.144Z,6.10
2019-01-28T15:00:55.029Z,8.10
2019-01-28T15:03:26.486Z,5.37
2019-01-28T15:05:57.447Z,7.30
2019-01-28T15:08:31.927Z,6.90
2019-01-28T15:11:03.371Z,7.53
2019-01-28T15:13:34.457Z,10.27
2019-01-28T15:16:09.167Z,7.07
2019-01-28T15:18:41.175Z,6.63
2019-01-28T15:21:14.299Z,6.57
2019-01-28T15:23:45.283Z,6.87
2019-01-28T15:26:16.079Z,6.63
2019-01-28T15:28:47.015Z,9.60
2019-01-28T15:31:17.855Z,9.70
2019-01-28T15:33:48.677Z,8.23
2019-01-28T15:36:20.102Z,13.20
2019-01-28T15:38:50.978Z,10.30
2019-01-28T15:41:21.815Z,9.80
2019-01-28T15:43:54.124Z,7.97
2019-01-28T15:46:34.340Z,9.93
2019-01-28T15:49:06.307Z,9.70
2019-01-28T15:51:40.367Z,7.43
2019-01-28T15:54:22.387Z,8.43
2019-01-28T15:56:56.243Z,8.30
2019-01-28T15:59:29.961Z,10.73
2019-01-28T16:02:01.421Z,13.70
2019-01-28T16:04:34.932Z,11.57
2019-01-28T16:07:12.005Z,13.40
2019-01-28T16:09:49.810Z,13.80
2019-01-28T16:12:22.894Z,13.80
2019-01-28T16:14:57.373Z,14.70
2019-01-28T16:17:35.843Z,15.93
2019-01-28T16:20:09.071Z,14.43
2019-01-28T16:22:42.348Z,19.93
2019-01-28T16:25:18.381Z,18.40
2019-01-28T16:27:51.802Z,15.43
2019-01-28T16:30:26.600Z,15.17
2019-01-28T16:32:59.354Z,17.10
2019-01-28T16:35:30.898Z,19.43
2019-01-28T16:38:05.098Z,18.00
2019-01-28T16:41:00.262Z,19.87
2019-01-28T16:43:37.318Z,16.03
2019-01-28T16:46:27.720Z,17.97
2019-01-28T16:49:00.464Z,13.93
2019-01-28T16:51:37.881Z,18.60
2019-01-28T16:54:11.781Z,18.87
2019-01-28T16:56:44.987Z,23.87
2019-01-28T16:59:16.898Z,17.43
2019-01-28T17:01:48.174Z,21.50
2019-01-28T17:04:19.997Z,21.07
2019-01-28T17:06:55.160Z,18.40
2019-01-28T17:09:28.164Z,21.57
2019-01-28T17:11:59.766Z,22.67
2019-01-28T17:14:30.470Z,18.47
2019-01-28T17:17:03.595Z,22.13
2019-01-28T17:19:35.978Z,20.70
2019-01-28T17:22:08.349Z,22.57
2019-01-28T17:24:39.178Z,21.67
2019-01-28T17:27:10.329Z,18.23
2019-01-28T17:29:41.445Z,20.93
2019-01-28T17:32:12.425Z,17.63
2019-01-28T17:34:43.573Z,17.80
2019-01-28T17:37:14.843Z,27.13
2019-01-28T17:39:45.903Z,19.23
2019-01-28T17:42:17.778Z,20.03
2019-01-28T17:44:48.807Z,20.63
2019-01-28T17:47:22.989Z,17.87
2019-01-28T17:50:01.246Z,18.87
2019-01-28T17:52:26.756Z,20.60
2019-01-28T17:54:57.704Z,19.27
2019-01-28T17:57:28.686Z,21.87
2019-01-28T18:00:00.299Z,17.63
2019-01-28T18:02:31.709Z,26.67
2019-01-28T18:05:03.158Z,21.63
2019-01-28T18:07:34.079Z,20.90
2019-01-28T18:10:06.590Z,22.67
2019-01-28T18:12:37.413Z,27.63
2019-01-28T18:15:11.464Z,19.47
2019-01-28T18:17:45.425Z,25.03
2019-01-28T18:20:16.814Z,19.47
2019-01-28T18:22:47.887Z,18.60
2019-01-28T18:25:21.320Z,19.40
2019-01-28T18:27:52.278Z,19.10
2019-01-28T18:30:33.376Z,20.07
2019-01-28T18:33:04.454Z,20.67
2019-01-28T18:35:35.640Z,20.33
2019-01-28T18:38:07.056Z,19.03
2019-01-28T18:40:37.923Z,22.13
2019-01-28T18:43:08.893Z,23.70
2019-01-28T18:45:39.802Z,23.67
2019-01-28T18:48:11.940Z,16.80
2019-01-28T18:50:43.344Z,19.93
2019-01-28T18:53:14.973Z,19.80
2019-01-28T18:55:46.157Z,23.03
2019-01-28T18:58:17.715Z,24.37
2019-01-28T19:00:48.752Z,18.40
2019-01-28T19:03:21.842Z,17.67
2019-01-28T19:06:03.169Z,23.47
2019-01-28T19:08:58.702Z,21.03
2019-01-28T19:12:06.565Z,19.43
2019-01-28T19:14:56.883Z,20.77
2019-01-28T19:17:49.708Z,16.03
2019-01-28T19:20:37.998Z,15.27
2019-01-28T19:23:09.118Z,16.37
2019-01-28T19:25:40.514Z,20.40
2019-01-28T19:28:12.995Z,14.90
2019-01-28T19:30:44.325Z,16.47
2019-01-28T19:33:15.377Z,18.77
2019-01-28T19:35:47.386Z,19.50
2019-01-28T19:38:18.393Z,15.77
2019-01-28T19:40:52.467Z,16.87
2019-01-28T19:43:24.146Z,13.37
2019-01-28T19:45:55.282Z,16.70
2019-01-28T19:48:27.835Z,15.17
2019-01-28T19:50:58.848Z,12.93
2019-01-28T19:53:29.521Z,14.37
2019-01-28T19:56:00.201Z,14.23
2019-01-28T19:58:31.076Z,11.13
2019-01-28T20:01:01.710Z,12.20
2019-01-28T20:03:32.437Z,12.43
2019-01-28T20:06:04.623Z,12.47
2019-01-28T20:08:35.925Z,14.57
2019-01-28T20:11:07.596Z,14.33
2019-01-28T20:13:41.948Z,12.70
2019-01-28T20:16:12.783Z,11.03
2019-01-28T20:18:43.965Z,11.17
2019-01-28T20:21:14.836Z,11.17
2019-01-28T20:23:45.607Z,13.13
2019-01-28T20:26:16.521Z,10.57
2019-01-28T20:28:47.314Z,12.23
2019-01-28T20:31:20.124Z,9.83
2019-01-28T20:33:51.259Z,9.07
2019-01-28T20:36:22.395Z,10.90
2019-01-28T20:38:53.365Z,8.17
2019-01-28T20:41:24.547Z,10.93
2019-01-28T20:43:58.883Z,11.50
2019-01-28T20:46:31.198Z,12.90
2019-01-28T20:49:04.780Z,10.53
2019-01-28T20:51:35.718Z,9.97
2019-01-28T20:54:07.335Z,14.93
2019-01-28T20:56:38.273Z,12.80
2019-01-28T20:59:09.021Z,10.23
2019-01-28T21:01:40.568Z,14.70
2019-01-28T21:04:11.458Z,15.60
2019-01-28T21:06:42.119Z,14.03
2019-01-28T21:09:13.276Z,18.00
2019-01-28T21:11:44.382Z,12.90
2019-01-28T21:14:15.753Z,22.03
2019-01-28T21:16:46.540Z,18.10
2019-01-28T21:19:17.330Z,16.23
2019-01-28T21:21:48.202Z,19.37
2019-01-28T21:24:19.098Z,18.00
2019-01-28T21:26:50.038Z,16.97
2019-01-28T21:29:21.371Z,14.90
2019-01-28T21:31:52.146Z,17.70
2019-01-28T21:34:22.926Z,20.33
2019-01-28T21:37:19.415Z,20.10
2019-01-28T21:39:50.088Z,23.00
2019-01-28T21:42:20.768Z,23.33
2019-01-28T21:44:51.828Z,22.03
2019-01-28T21:47:22.514Z,21.53
2019-01-28T21:49:53.219Z,21.50
2019-01-28T21:52:24.483Z,20.87
2019-01-28T21:54:55.144Z,25.27
2019-01-28T21:57:25.850Z,24.93
2019-01-28T21:59:56.632Z,24.70
2019-01-28T22:02:27.277Z,26.07
2019-01-28T22:05:01.407Z,29.57
2019-01-28T22:07:32.308Z,26.77
2019-01-28T22:10:03.052Z,27.27
2019-01-28T22:12:33.700Z,28.80
2019-01-28T22:15:05.579Z,26.33
2019-01-28T22:17:36.320Z,33.90
2019-01-28T22:20:08.347Z,29.73
2019-01-28T22:22:40.260Z,28.97
2019-01-28T22:25:12.467Z,30.27
2019-01-28T22:27:43.100Z,28.87
2019-01-28T22:30:19.053Z,29.53
2019-01-28T22:32:50.186Z,31.07
2019-01-28T22:35:21.170Z,28.90
2019-01-28T22:37:51.911Z,30.60
2019-01-28T22:40:22.695Z,31.50
2019-01-28T22:42:53.364Z,32.27
2019-01-28T22:45:24.130Z,32.47
2019-01-28T22:47:54.928Z,32.00
2019-01-28T22:50:25.847Z,32.23
2019-01-28T22:52:56.621Z,29.07
2019-01-28T22:55:27.277Z,30.27
2019-01-28T22:57:58.776Z,33.13
2019-01-28T23:01:01.349Z,26.90
2019-01-28T23:03:31.984Z,29.27
2019-01-28T23:06:03.178Z,36.10
2019-01-28T23:08:33.983Z,36.40
2019-01-28T23:11:04.809Z,33.57
2019-01-28T23:13:37.009Z,37.93
2019-01-28T23:16:08.565Z,29.30
2019-01-28T23:18:39.531Z,26.40
2019-01-28T23:21:10.279Z,31.30
2019-01-28T23:23:41.377Z,25.10
2019-01-28T23:26:12.553Z,32.83
2019-01-28T23:28:43.211Z,28.50
2019-01-28T23:31:14.000Z,24.73
2019-01-28T23:33:44.918Z,23.30
2019-01-28T23:36:15.796Z,18.60
2019-01-28T23:38:46.390Z,19.03
2019-01-28T23:41:17.594Z,18.87
2019-01-28T23:43:48.540Z,21.93
2019-01-28T23:46:20.652Z,21.97
2019-01-28T23:48:51.429Z,13.83
2019-01-28T23:51:22.309Z,19.90
2019-01-28T23:53:52.895Z,15.80
2019-01-28T23:56:23.665Z,19.73
2019-01-28T23:58:54.411Z,14.93
